createdAt,value
2019-02-07T00:00:30.608Z,86.28
2019-02-07T00:03:02.139Z,86.37
2019-02-07T00:05:33.610Z,86.23
2019-02-07T00:08:05.107Z,86.12
2019-02-07T00:10:36.415Z,86.37
2019-02-07T00:13:07.665Z,86.29
2019-02-07T00:15:39.184Z,86.26
2019-02-07T00:18:10.576Z,86.37
2019-02-07T00:20:42.039Z,86.46
2019-02-07T00:23:13.410Z,86.57
2019-02-07T00:25:44.802Z,86.45
2019-02-07T00:28:16.196Z,86.54
2019-02-07T00:30:47.720Z,86.79
2019-02-07T00:33:19.032Z,86.72
2019-02-07T00:35:50.454Z,86.85
2019-02-07T00:38:21.743Z,86.88
2019-02-07T00:40:52.998Z,86.89
2019-02-07T00:43:24.292Z,87.16
2019-02-07T00:45:55.627Z,86.95
2019-02-07T00:48:26.994Z,86.92
2019-02-07T00:50:58.319Z,86.82
2019-02-07T00:53:31.879Z,86.55
2019-02-07T00:56:03.366Z,86.44
2019-02-07T00:58:34.626Z,86.55
2019-02-07T01:01:06.233Z,86.64
2019-02-07T01:03:37.625Z,86.63
2019-02-07T01:06:10.208Z,86.52
2019-02-07T01:08:41.742Z,86.47
2019-02-07T01:11:13.138Z,86.48
2019-02-07T01:13:44.907Z,86.50
2019-02-07T01:16:16.216Z,86.63
2019-02-07T01:18:47.537Z,86.39
2019-02-07T01:21:18.860Z,86.08
2019-02-07T01:23:50.234Z,86.08
2019-02-07T01:26:21.555Z,86.04
2019-02-07T01:28:52.874Z,85.96
2019-02-07T01:31:24.381Z,85.86
2019-02-07T01:33:55.632Z,86.13
2019-02-07T01:36:26.885Z,86.37
2019-02-07T01:38:58.169Z,86.46
2019-02-07T01:41:29.554Z,86.62
2019-02-07T01:44:00.919Z,86.77
2019-02-07T01:46:32.314Z,86.59
2019-02-07T01:49:04.096Z,86.39
2019-02-07T01:51:35.477Z,86.44
2019-02-07T01:54:06.935Z,86.67
2019-02-07T01:56:38.332Z,86.56
2019-02-07T01:59:09.714Z,86.56
2019-02-07T02:01:41.033Z,86.83
2019-02-07T02:04:12.434Z,86.47
2019-02-07T02:06:43.829Z,86.71
2019-02-07T02:09:15.204Z,86.88
2019-02-07T02:11:46.458Z,86.87
2019-02-07T02:14:17.831Z,86.26
2019-02-07T02:16:49.230Z,86.08
2019-02-07T02:19:20.884Z,86.29
2019-02-07T02:21:52.201Z,86.60
2019-02-07T02:24:23.649Z,86.59
2019-02-07T02:26:55.025Z,86.90
2019-02-07T02:29:26.397Z,87.06
2019-02-07T02:31:58.174Z,87.15
2019-02-07T02:34:29.468Z,87.26
2019-02-07T02:37:00.720Z,87.15
2019-02-07T02:39:32.156Z,87.06
2019-02-07T02:42:03.547Z,86.95
2019-02-07T02:44:35.850Z,87.05
2019-02-07T02:47:07.239Z,87.05
2019-02-07T02:49:38.539Z,86.95
2019-02-07T02:52:09.930Z,86.96
2019-02-07T02:54:42.884Z,87.29
2019-02-07T02:57:14.507Z,87.62
2019-02-07T02:59:47.016Z,87.75
2019-02-07T03:02:27.232Z,87.84
2019-02-07T03:05:00.281Z,87.64
2019-02-07T03:07:48.757Z,87.71
2019-02-07T03:10:30.608Z,87.65
2019-02-07T03:13:10.359Z,87.66
2019-02-07T03:15:49.611Z,87.52
2019-02-07T03:18:29.919Z,87.41
2019-02-07T03:21:21.260Z,87.40
2019-02-07T03:24:00.083Z,87.51
2019-02-07T03:26:37.290Z,87.40
2019-02-07T03:29:13.129Z,87.29
2019-02-07T03:32:02.654Z,87.43
2019-02-07T03:34:38.377Z,87.40
2019-02-07T03:37:20.403Z,87.39
2019-02-07T03:40:09.505Z,87.31
2019-02-07T03:42:58.622Z,87.23
2019-02-07T03:45:29.895Z,87.02
2019-02-07T03:48:18.506Z,86.96
2019-02-07T03:50:55.461Z,87.03
2019-02-07T03:53:43.709Z,86.89
2019-02-07T03:56:32.709Z,86.99
2019-02-07T03:59:22.164Z,86.92
2019-02-07T04:02:00.936Z,86.88
2019-02-07T04:04:50.300Z,86.62
2019-02-07T04:07:26.155Z,86.57
2019-02-07T04:10:05.351Z,86.79
2019-02-07T04:12:50.281Z,86.90
2019-02-07T04:15:29.299Z,87.08
2019-02-07T04:18:18.324Z,86.96
2019-02-07T04:21:00.225Z,86.85
2019-02-07T04:23:33.124Z,86.84
2019-02-07T04:26:22.038Z,86.45
2019-02-07T04:28:55.006Z,86.04
2019-02-07T04:31:33.757Z,86.04
2019-02-07T04:34:07.849Z,85.79
2019-02-07T04:36:40.794Z,85.64
2019-02-07T04:39:30.562Z,86.01
2019-02-07T04:42:06.710Z,85.84
2019-02-07T04:44:50.108Z,85.71
2019-02-07T04:47:32.390Z,85.93
2019-02-07T04:50:23.008Z,86.03
2019-02-07T04:52:59.058Z,86.22
2019-02-07T04:55:39.390Z,85.61
2019-02-07T04:58:24.478Z,85.50
2019-02-07T05:01:06.576Z,85.73
2019-02-07T05:03:40.852Z,85.53
2019-02-07T05:06:24.830Z,85.24
2019-02-07T05:08:56.145Z,85.11
2019-02-07T05:11:45.701Z,85.27
2019-02-07T05:14:32.500Z,84.93
2019-02-07T05:17:21.560Z,84.77
2019-02-07T05:19:59.093Z,84.74
2019-02-07T05:22:47.944Z,85.06
2019-02-07T05:25:21.247Z,84.94
2019-02-07T05:28:12.439Z,85.04
2019-02-07T05:31:03.881Z,84.54
2019-02-07T05:33:48.814Z,84.37
2019-02-07T05:36:25.720Z,83.91
2019-02-07T05:39:14.567Z,83.64
2019-02-07T05:41:47.704Z,83.53
2019-02-07T05:44:38.761Z,83.13
2019-02-07T05:47:12.808Z,82.65
2019-02-07T05:49:48.441Z,82.27
2019-02-07T05:52:30.541Z,82.16
2019-02-07T05:55:09.218Z,82.03
2019-02-07T05:57:42.235Z,82.18
2019-02-07T06:00:27.535Z,81.88
2019-02-07T06:03:06.660Z,81.65
2019-02-07T06:05:40.531Z,81.38
2019-02-07T06:08:13.508Z,81.08
2019-02-07T06:10:52.540Z,81.15
2019-02-07T06:13:32.058Z,81.29
2019-02-07T06:16:12.519Z,80.57
2019-02-07T06:19:01.482Z,80.27
2019-02-07T06:21:35.420Z,80.23
2019-02-07T06:24:15.547Z,80.00
2019-02-07T06:26:58.598Z,80.10
2019-02-07T06:29:31.629Z,80.14
2019-02-07T06:32:23.190Z,79.99
2019-02-07T06:35:11.002Z,80.33
2019-02-07T06:37:44.222Z,80.39
2019-02-07T06:40:30.744Z,80.60
2019-02-07T06:43:03.624Z,80.24
2019-02-07T06:45:36.707Z,80.45
2019-02-07T06:48:12.319Z,80.29
2019-02-07T06:51:01.659Z,80.23
2019-02-07T06:53:43.829Z,80.02
2019-02-07T06:56:20.275Z,79.91
2019-02-07T06:59:02.035Z,79.96
2019-02-07T07:01:40.835Z,80.00
2019-02-07T07:04:16.843Z,79.88
2019-02-07T07:07:03.129Z,79.56
2019-02-07T07:09:34.398Z,80.22
2019-02-07T07:12:19.963Z,79.53
2019-02-07T07:14:55.646Z,79.88
2019-02-07T07:17:31.260Z,79.78
2019-02-07T07:20:22.895Z,79.60
2019-02-07T07:23:01.959Z,79.55
2019-02-07T07:25:42.802Z,79.42
2019-02-07T07:28:31.955Z,79.85
2019-02-07T07:31:12.541Z,80.05
2019-02-07T07:33:53.773Z,79.39
2019-02-07T07:36:37.199Z,79.70
2019-02-07T07:39:15.361Z,79.96
2019-02-07T07:41:51.277Z,80.03
2019-02-07T07:44:30.309Z,79.95
2019-02-07T07:47:21.402Z,79.96
2019-02-07T07:50:03.907Z,80.28
2019-02-07T07:52:52.089Z,80.47
2019-02-07T07:55:36.840Z,80.06
2019-02-07T07:58:10.010Z,80.25
2019-02-07T08:00:59.015Z,80.36
2019-02-07T08:03:37.741Z,80.02
2019-02-07T08:06:10.785Z,80.30
2019-02-07T08:08:46.576Z,80.57
2019-02-07T08:11:33.030Z,81.03
2019-02-07T08:14:07.570Z,80.69
2019-02-07T08:16:59.167Z,80.61
2019-02-07T08:19:37.748Z,80.46
2019-02-07T08:22:26.879Z,80.95
2019-02-07T08:24:59.815Z,80.88
2019-02-07T08:27:43.044Z,81.10
2019-02-07T08:30:19.175Z,81.01
2019-02-07T08:32:52.133Z,81.37
2019-02-07T08:35:25.093Z,80.71
2019-02-07T08:38:14.289Z,80.79
2019-02-07T08:41:03.558Z,80.20
2019-02-07T08:43:45.465Z,80.13
2019-02-07T08:46:21.099Z,80.13
2019-02-07T08:49:01.096Z,80.81
2019-02-07T08:51:50.583Z,80.14
2019-02-07T08:54:39.555Z,79.83
2019-02-07T08:57:25.880Z,80.01
2019-02-07T09:00:04.896Z,80.02
2019-02-07T09:02:51.766Z,80.24
2019-02-07T09:05:27.427Z,80.41
2019-02-07T09:08:16.883Z,80.66
2019-02-07T09:10:57.420Z,81.05
2019-02-07T09:13:46.536Z,81.30
2019-02-07T09:16:17.814Z,81.58
2019-02-07T09:19:07.065Z,81.99
2019-02-07T09:24:52.966Z,83.22
2019-02-07T09:27:26.094Z,83.01
2019-02-07T09:30:20.228Z,83.32
2019-02-07T09:33:12.348Z,83.75
2019-02-07T09:36:05.436Z,84.03
2019-02-07T09:38:40.641Z,84.14
2019-02-07T09:41:20.004Z,84.37
2019-02-07T09:43:53.897Z,84.81
2019-02-07T09:46:39.965Z,85.02
2019-02-07T09:49:13.607Z,85.13
2019-02-07T09:51:53.600Z,85.39
2019-02-07T09:54:26.760Z,85.52
2019-02-07T09:57:03.741Z,85.70
2019-02-07T09:59:40.196Z,85.89
2019-02-07T10:02:28.177Z,86.29
2019-02-07T10:05:07.112Z,86.19
2019-02-07T10:07:44.204Z,86.23
2019-02-07T10:10:29.557Z,86.46
2019-02-07T10:13:02.715Z,86.90
2019-02-07T10:15:43.897Z,86.98
2019-02-07T10:18:32.435Z,87.37
2019-02-07T10:20:55.267Z,87.62
2019-02-07T10:23:31.341Z,88.01
2019-02-07T10:26:26.630Z,88.47
2019-02-07T10:29:05.343Z,88.72
2019-02-07T10:31:45.421Z,88.83
2019-02-07T10:34:21.039Z,88.89
2019-02-07T10:36:55.152Z,88.93
2019-02-07T10:39:29.897Z,88.82
2019-02-07T10:44:57.393Z,88.77
2019-02-07T10:47:30.512Z,88.77
2019-02-07T10:50:23.001Z,88.62
2019-02-07T10:53:14.389Z,88.67
2019-02-07T10:56:06.465Z,88.89
2019-02-07T10:58:42.551Z,88.84
2019-02-07T11:01:31.952Z,88.91
2019-02-07T11:04:05.387Z,88.90
2019-02-07T11:06:40.027Z,88.66
2019-02-07T11:09:26.595Z,88.65
2019-02-07T11:12:05.459Z,88.80
2019-02-07T11:14:41.641Z,88.71
2019-02-07T11:17:17.799Z,88.78
2019-02-07T11:19:52.312Z,88.76
2019-02-07T11:22:28.029Z,88.72
2019-02-07T11:25:03.617Z,88.79
2019-02-07T11:27:42.521Z,88.98
2019-02-07T11:30:17.314Z,88.69
2019-02-07T11:32:55.857Z,88.65
2019-02-07T11:35:37.824Z,88.47
2019-02-07T11:38:11.405Z,88.38
2019-02-07T11:40:50.469Z,88.13
2019-02-07T11:43:29.758Z,87.84
2019-02-07T11:46:01.241Z,87.51
2019-02-07T11:48:34.458Z,87.37
2019-02-07T11:51:24.218Z,87.08
2019-02-07T11:54:03.493Z,86.81
2019-02-07T11:56:36.815Z,87.00
2019-02-07T11:59:12.494Z,86.49
2019-02-07T12:01:49.344Z,86.48
2019-02-07T12:04:24.927Z,86.35
2019-02-07T12:07:14.076Z,86.52
2019-02-07T12:09:47.107Z,86.22
2019-02-07T12:12:23.015Z,85.98
2019-02-07T12:14:55.729Z,85.77
2019-02-07T12:17:45.004Z,85.16
2019-02-07T12:20:19.376Z,85.29
2019-02-07T12:23:14.707Z,85.54
2019-02-07T12:25:47.804Z,85.46
2019-02-07T12:28:36.962Z,85.74
2019-02-07T12:31:16.088Z,86.05
2019-02-07T12:34:05.443Z,86.27
2019-02-07T12:36:41.346Z,86.70
2019-02-07T12:39:14.506Z,87.01
2019-02-07T12:41:50.338Z,87.09
2019-02-07T12:44:32.415Z,87.08
2019-02-07T12:47:18.539Z,86.51
2019-02-07T12:50:07.485Z,85.67
2019-02-07T12:52:57.920Z,85.09
2019-02-07T12:55:33.800Z,85.17
2019-02-07T12:58:09.973Z,85.40
2019-02-07T13:00:47.307Z,85.44
2019-02-07T13:03:27.344Z,85.67
2019-02-07T13:06:06.244Z,85.71
2019-02-07T13:08:41.825Z,85.65
2019-02-07T13:11:15.031Z,85.98
2019-02-07T13:13:46.204Z,85.95
2019-02-07T13:16:34.643Z,85.75
2019-02-07T13:19:16.905Z,85.96
2019-02-07T13:21:55.864Z,85.93
2019-02-07T13:24:42.129Z,85.66
2019-02-07T13:27:34.348Z,85.69
2019-02-07T13:30:30.353Z,85.90
2019-02-07T13:33:04.665Z,86.02
2019-02-07T13:35:43.833Z,86.03
2019-02-07T13:38:16.955Z,85.84
2019-02-07T13:41:06.869Z,85.47
2019-02-07T13:43:55.841Z,85.42
2019-02-07T13:46:39.036Z,85.40
2019-02-07T13:49:13.241Z,85.23
2019-02-07T13:51:55.294Z,85.61
2019-02-07T13:54:34.563Z,85.14
2019-02-07T13:57:06.038Z,85.10
2019-02-07T13:59:45.546Z,84.96
2019-02-07T14:02:35.074Z,84.57
2019-02-07T14:05:26.850Z,84.32
2019-02-07T14:08:15.889Z,84.62
2019-02-07T14:10:57.669Z,84.11
2019-02-07T14:13:35.576Z,83.99
2019-02-07T14:16:08.599Z,84.00
2019-02-07T14:18:44.630Z,83.34
2019-02-07T14:21:29.820Z,83.32
2019-02-07T14:24:08.817Z,83.41
2019-02-07T14:26:44.738Z,82.77
2019-02-07T14:29:36.013Z,82.52
2019-02-07T14:32:25.177Z,82.54
2019-02-07T14:35:14.168Z,83.06
2019-02-07T14:38:03.586Z,82.38
2019-02-07T14:40:39.311Z,82.19
2019-02-07T14:43:12.312Z,82.57
2019-02-07T14:45:54.683Z,82.27
2019-02-07T14:48:26.298Z,82.50
2019-02-07T14:50:57.664Z,82.36
2019-02-07T14:53:29.170Z,82.32
2019-02-07T14:56:00.592Z,82.18
2019-02-07T14:58:32.103Z,81.75
2019-02-07T15:01:03.512Z,81.59
2019-02-07T15:03:34.882Z,81.84
2019-02-07T15:06:06.429Z,81.66
2019-02-07T15:08:37.810Z,81.21
2019-02-07T15:11:09.948Z,80.79
2019-02-07T15:13:42.309Z,80.45
2019-02-07T15:16:15.344Z,80.72
2019-02-07T15:18:46.862Z,80.80
2019-02-07T15:21:19.802Z,80.97
2019-02-07T15:23:51.094Z,81.27
2019-02-07T15:26:22.373Z,81.50
2019-02-07T15:28:53.812Z,81.78
2019-02-07T15:31:25.623Z,81.93
2019-02-07T15:33:57.210Z,82.00
2019-02-07T15:36:29.744Z,82.13
2019-02-07T15:39:01.226Z,82.31
2019-02-07T15:41:34.107Z,82.42
2019-02-07T15:44:05.533Z,82.70
2019-02-07T15:46:37.016Z,82.98
2019-02-07T15:49:08.530Z,83.10
2019-02-07T15:51:41.013Z,83.15
2019-02-07T15:54:13.467Z,83.13
2019-02-07T15:56:46.414Z,83.15
2019-02-07T15:59:22.832Z,83.18
2019-02-07T16:01:58.600Z,83.23
2019-02-07T16:04:31.098Z,83.40
2019-02-07T16:07:02.592Z,83.43
2019-02-07T16:09:34.044Z,83.59
2019-02-07T16:12:05.921Z,83.71
2019-02-07T16:14:37.370Z,83.60
2019-02-07T16:17:08.671Z,83.68
2019-02-07T16:20:02.374Z,83.81
2019-02-07T16:22:38.779Z,84.05
2019-02-07T16:25:14.516Z,84.09
2019-02-07T16:27:46.203Z,84.21
2019-02-07T16:30:19.932Z,84.10
2019-02-07T16:32:51.625Z,83.82
2019-02-07T16:35:23.570Z,83.83
2019-02-07T16:37:56.834Z,84.06
2019-02-07T16:40:29.645Z,84.57
2019-02-07T16:43:01.099Z,84.67
2019-02-07T16:45:33.449Z,84.60
2019-02-07T16:48:05.794Z,84.68
2019-02-07T16:50:41.019Z,84.68
2019-02-07T16:53:12.486Z,84.66
2019-02-07T16:55:49.055Z,84.26
2019-02-07T16:58:20.241Z,84.03
2019-02-07T17:00:52.692Z,83.87
2019-02-07T17:03:27.106Z,84.10
2019-02-07T17:06:00.293Z,84.50
2019-02-07T17:08:31.818Z,84.73
2019-02-07T17:11:05.567Z,85.00
2019-02-07T17:13:46.211Z,84.89
2019-02-07T17:16:27.784Z,84.96
2019-02-07T17:19:00.078Z,85.17
2019-02-07T17:21:32.931Z,85.29
2019-02-07T17:24:08.219Z,85.32
2019-02-07T17:26:39.613Z,85.47
2019-02-07T17:29:11.264Z,85.31
2019-02-07T17:31:43.078Z,86.46
2019-02-07T17:34:14.697Z,86.85
2019-02-07T17:36:52.137Z,87.25
2019-02-07T17:39:23.607Z,87.34
2019-02-07T17:41:59.834Z,86.99
2019-02-07T17:44:31.327Z,87.35
2019-02-07T17:47:02.838Z,87.21
2019-02-07T17:49:34.399Z,87.21
2019-02-07T17:52:06.302Z,87.24
2019-02-07T17:54:42.811Z,87.23
2019-02-07T17:57:14.583Z,87.09
2019-02-07T17:59:48.006Z,87.35
2019-02-07T18:02:19.479Z,87.35
2019-02-07T18:04:52.073Z,87.25
2019-02-07T18:07:25.559Z,87.27
2019-02-07T18:09:57.013Z,87.42
2019-02-07T18:12:28.783Z,87.45
2019-02-07T18:15:00.328Z,87.40
2019-02-07T18:17:31.880Z,87.50
2019-02-07T18:20:05.012Z,87.51
2019-02-07T18:22:36.451Z,87.58
2019-02-07T18:25:08.806Z,87.59
2019-02-07T18:27:42.016Z,87.37
2019-02-07T18:30:22.335Z,87.23
2019-02-07T18:32:55.251Z,87.32
2019-02-07T18:35:26.748Z,87.19
2019-02-07T18:37:59.797Z,87.42
2019-02-07T18:40:34.148Z,87.54
2019-02-07T18:43:06.166Z,87.69
2019-02-07T18:45:48.852Z,87.85
2019-02-07T18:48:20.414Z,88.10
2019-02-07T18:50:51.811Z,88.12
2019-02-07T18:53:23.396Z,88.28
2019-02-07T18:55:56.554Z,88.42
2019-02-07T18:58:28.215Z,88.73
2019-02-07T19:00:59.646Z,88.63
2019-02-07T19:03:32.997Z,88.69
2019-02-07T19:06:04.790Z,88.57
2019-02-07T19:08:38.054Z,88.38
2019-02-07T19:11:11.192Z,88.68
2019-02-07T19:13:42.759Z,89.29
2019-02-07T19:16:14.624Z,89.44
2019-02-07T19:18:46.476Z,89.51
2019-02-07T19:21:17.896Z,89.70
2019-02-07T19:23:49.327Z,89.47
2019-02-07T19:26:21.582Z,89.56
2019-02-07T19:28:53.085Z,89.56
2019-02-07T19:31:24.468Z,89.38
2019-02-07T19:34:01.693Z,89.33
2019-02-07T19:36:33.137Z,89.06
2019-02-07T19:39:07.934Z,88.98
2019-02-07T19:41:40.188Z,88.97
2019-02-07T19:44:18.152Z,88.76
2019-02-07T19:46:51.679Z,88.55
2019-02-07T19:49:23.267Z,88.71
2019-02-07T19:51:54.949Z,88.74
2019-02-07T19:54:26.831Z,88.60
2019-02-07T19:56:58.639Z,88.57
2019-02-07T19:59:30.223Z,88.43
2019-02-07T20:02:01.626Z,88.62
2019-02-07T20:04:34.630Z,88.59
2019-02-07T20:07:06.254Z,89.02
2019-02-07T20:09:37.732Z,89.01
2019-02-07T20:12:09.379Z,89.02
2019-02-07T20:14:40.923Z,88.87
2019-02-07T20:17:12.349Z,88.86
2019-02-07T20:19:43.729Z,89.17
2019-02-07T20:22:20.238Z,89.19
2019-02-07T20:24:50.880Z,89.26
2019-02-07T20:27:23.333Z,89.22
2019-02-07T20:29:54.738Z,89.23
2019-02-07T20:32:26.180Z,89.20
2019-02-07T20:34:59.074Z,89.07
2019-02-07T20:37:30.436Z,88.85
2019-02-07T20:40:01.754Z,88.86
2019-02-07T20:42:34.458Z,88.84
2019-02-07T20:45:10.885Z,88.78
2019-02-07T20:47:42.885Z,88.68
2019-02-07T20:50:27.291Z,88.64
2019-02-07T20:52:59.939Z,88.84
2019-02-07T20:55:31.442Z,88.80
2019-02-07T20:58:02.942Z,88.51
2019-02-07T21:00:38.311Z,88.31
2019-02-07T21:03:10.449Z,87.68
2019-02-07T21:05:42.112Z,86.53
2019-02-07T21:08:13.768Z,85.58
2019-02-07T21:10:45.463Z,85.32
2019-02-07T21:13:16.948Z,85.67
2019-02-07T21:15:48.332Z,86.04
2019-02-07T21:18:19.861Z,86.51
2019-02-07T21:20:51.323Z,87.00
2019-02-07T21:23:23.270Z,87.34
2019-02-07T21:25:54.948Z,87.59
2019-02-07T21:28:27.276Z,87.50
2019-02-07T21:30:58.656Z,87.34
2019-02-07T21:33:30.158Z,87.49
2019-02-07T21:36:01.685Z,87.52
2019-02-07T21:38:33.480Z,87.41
2019-02-07T21:41:05.448Z,87.05
2019-02-07T21:43:36.914Z,86.72
2019-02-07T21:46:09.364Z,86.34
2019-02-07T21:48:40.887Z,85.98
2019-02-07T21:51:12.361Z,85.79
2019-02-07T21:53:45.161Z,85.68
2019-02-07T21:56:16.575Z,85.57
2019-02-07T21:58:49.593Z,85.50
2019-02-07T22:01:22.213Z,85.77
2019-02-07T22:03:53.562Z,85.77
2019-02-07T22:06:24.939Z,85.74
2019-02-07T22:08:56.453Z,85.84
2019-02-07T22:11:27.757Z,86.06
2019-02-07T22:13:59.115Z,85.95
2019-02-07T22:16:30.495Z,86.11
2019-02-07T22:19:02.113Z,86.58
2019-02-07T22:21:33.359Z,86.88
2019-02-07T22:24:04.773Z,87.03
2019-02-07T22:26:36.079Z,87.14
2019-02-07T22:29:07.489Z,87.29
2019-02-07T22:31:40.081Z,87.22
2019-02-07T22:34:11.421Z,87.13
2019-02-07T22:36:42.735Z,86.90
2019-02-07T22:39:14.083Z,86.60
2019-02-07T22:41:45.412Z,86.51
2019-02-07T22:44:17.176Z,86.59
2019-02-07T22:46:48.468Z,86.73
2019-02-07T22:49:19.746Z,86.73
2019-02-07T22:51:51.115Z,86.58
2019-02-07T22:54:22.679Z,86.61
2019-02-07T22:56:53.907Z,86.46
2019-02-07T22:59:25.184Z,86.35
2019-02-07T23:01:57.433Z,86.30
2019-02-07T23:04:28.846Z,86.37
2019-02-07T23:07:00.152Z,86.22
2019-02-07T23:09:31.713Z,86.27
2019-02-07T23:12:03.160Z,86.16
2019-02-07T23:14:34.674Z,85.96
2019-02-07T23:17:06.452Z,85.94
2019-02-07T23:19:37.994Z,85.87
2019-02-07T23:22:09.362Z,85.90
2019-02-07T23:24:41.775Z,86.09
2019-02-07T23:27:13.144Z,86.40
2019-02-07T23:29:44.510Z,86.28
2019-02-07T23:32:15.738Z,86.26
2019-02-07T23:34:47.011Z,86.50
2019-02-07T23:37:18.291Z,86.57
2019-02-07T23:39:49.533Z,86.55
2019-02-07T23:42:23.823Z,86.45
2019-02-07T23:45:08.936Z,86.59
2019-02-07T23:47:42.493Z,86.60
2019-02-07T23:50:17.395Z,86.61
2019-02-07T23:52:48.750Z,86.55
2019-02-07T23:55:20.125Z,86.75
2019-02-07T23:57:51.616Z,86.76
